Armstrong, Florida
Current Conditions -  °F | °C
As of 5:58 PM on Wednesday 17 Dec 2014 (Local Time) from KSGJ Reporting Station
Clear Clear  
Wind Chill: 58°   Ceiling: Unl
Heat Index: 58°   Visibility: 10mi
Dew Point: 51°   Wind: 0mph
Humidity: 78%   Direction: NA
Pressure: 30.12"   Gusts: NA
Location:  29.7919°N, 81.4499°W
Report Text: KSGJ 172258Z 00000KT 10SM CLR 14/11 A3012 RMK AO2 SLP201 T01440106
Loading
Personal Weather Stations






























Interactive Weather Map New forecast layout! Learn more

10-Day Weather Forecast

Advertisements
Track Severe Weather on mobile